This is the latest recevied weather packets stored in our database for station/object OE9GTV. If no packets are shown the sender has not sent any weather packets the latest 10 day(s).
| Time | Temp. | Humidity | Pressure | Rain* | Wind** | Luminosity | Snow |
|---|---|---|---|---|---|---|---|
| 1777962073 | 10.56° C | 83% | 1006.9 hPa | 0 mm | - | 0 W/m² | - |
| 1777961473 | 10° C | 83% | 1006.8 hPa | 0 mm | - | 0 W/m² | - |
| 1777960273 | 9.44° C | 82% | 1006.8 hPa | 0 mm | - | 0 W/m² | - |
| 1777959673 | 8.89° C | 82% | 1006.8 hPa | 0 mm | - | 0 W/m² | - |
| 1777959072 | 8.33° C | 81% | 1006.8 hPa | 0 mm | - | 0 W/m² | - |
| 1777958472 | 8.33° C | 81% | 1006.8 hPa | 0 mm | - | 0 W/m² | - |
| 1777957873 | 8.33° C | 81% | 1006.7 hPa | 0 mm | - | 0 W/m² | - |
| 1777956672 | 8.33° C | 80% | 1006.8 hPa | 0 mm | - | 0 W/m² | - |
| 1777956072 | 8.33° C | 80% | 1006.8 hPa | 0 mm | - | 0 W/m² | - |
| 1777955472 | 8.33° C | 80% | 1006.8 hPa | 0 mm | - | 0 W/m² | - |
| 1777954872 | 8.33° C | 79% | 1006.6 hPa | 0 mm | - | 0 W/m² | - |
| 1777954272 | 8.33° C | 79% | 1006.7 hPa | 0 mm | - | 0 W/m² | - |
| 1777942271 | 10.56° C | 72% | 1008.2 hPa | 0 mm | - | 0 W/m² | - |
| 1777941671 | 10.56° C | 72% | 1008.3 hPa | 0 mm | - | 0 W/m² | - |
| 1777940471 | 10.56° C | 71% | 1008.4 hPa | 0 mm | - | 0 W/m² | - |
| 1777939871 | 11.11° C | 71% | 1008.5 hPa | 0 mm | - | 0 W/m² | - |
| 1777933276 | 12.78° C | 63% | 1009 hPa | 0 mm | - | 0 W/m² | - |
| 1777931476 | 13.33° C | 59% | 1008.9 hPa | 0 mm | - | 0 W/m² | - |
| 1777930876 | 13.33° C | 58% | 1009 hPa | 0 mm | - | 0 W/m² | - |
| 1777929075 | 14.44° C | 56% | 1008.8 hPa | 0 mm | - | 0 W/m² | - |
| 1777926075 | 15.56° C | 51% | 1008.5 hPa | 0 mm | - | 0 W/m² | - |
| 1777915874 | 21.11° C | 31% | 1008.7 hPa | 0 mm | - | 0 W/m² | - |
| 1777913474 | 21.67° C | 30% | 1008.8 hPa | 0 mm | - | 0 W/m² | - |
| 1777912274 | 22.22° C | 30% | 1008.6 hPa | 0 mm | - | 0 W/m² | - |
| 1777905073 | 24.44° C | 28% | 1007.7 hPa | 0 mm | - | 0 W/m² | - |
* Rain latest hour (hover to see other rain measurements)
** Current wind speed in m/s (hover to see current wind gust speed)